Time;durP1;ratioP1;P1;durP2;ratioP2;P2;SDS_P1;SDS_P2;PMS_P1;PMS_P2;Temp;Humidity;BMP_temperature;BMP_pressure;BME280_temperature;BME280_humidity;BME280_pressure;Samples;Min_cycle;Max_cycle;Signal;HPM_P1;HPM_P2
2020/12/05 00:00:22;;;;;;;22.07;13.20;;;;;;;;;;739536;188;919427;-60
2020/12/05 00:02:47;;;;;;;22.93;13.77;;;;;;;;;;739898;188;919568;-61
2020/12/05 00:05:13;;;;;;;24.33;15.50;;;;;;;;;;739914;188;919827;-61
2020/12/05 00:07:39;;;;;;;20.70;14.25;;;;;;;;;;728331;185;1393630;-61
2020/12/05 00:10:04;;;;;;;30.33;15.90;;;;;;;;;;735743;187;919202;-61
2020/12/05 00:12:30;;;;;;;30.90;15.63;;;;;;;;;;736372;188;918345;-61
2020/12/05 00:14:56;;;;;;;26.93;15.97;;;;;;;;;;732320;185;919097;-61
2020/12/05 00:17:22;;;;;;;25.80;16.12;;;;;;;;;;734050;188;918972;-60
2020/12/05 00:19:48;;;;;;;22.27;16.70;;;;;;;;;;741810;188;918549;-60
2020/12/05 00:22:14;;;;;;;25.88;15.70;;;;;;;;;;735703;187;919680;-61
2020/12/05 00:24:40;;;;;;;26.10;15.10;;;;;;;;;;730994;188;919080;-61
2020/12/05 00:27:05;;;;;;;28.13;17.30;;;;;;;;;;740046;188;934363;-60
2020/12/05 00:29:31;;;;;;;25.33;16.50;;;;;;;;;;735872;185;919270;-61
2020/12/05 00:31:57;;;;;;;24.80;15.73;;;;;;;;;;740297;188;919398;-63
2020/12/05 00:34:23;;;;;;;22.40;15.77;;;;;;;;;;733600;188;918441;-60
2020/12/05 00:36:49;;;;;;;21.15;14.00;;;;;;;;;;736779;188;918841;-61
2020/12/05 00:39:15;;;;;;;29.17;16.60;;;;;;;;;;734710;188;918661;-61
2020/12/05 00:41:40;;;;;;;24.67;15.70;;;;;;;;;;743734;188;918727;-61
2020/12/05 00:44:06;;;;;;;25.27;15.30;;;;;;;;;;734392;188;918383;-61
2020/12/05 00:46:32;;;;;;;23.83;14.70;;;;;;;;;;736473;188;918782;-62
2020/12/05 00:48:58;;;;;;;21.83;14.77;;;;;;;;;;737149;186;914979;-61
2020/12/05 00:51:24;;;;;;;24.77;15.43;;;;;;;;;;733661;188;915565;-61
2020/12/05 00:53:50;;;;;;;28.07;17.13;;;;;;;;;;732534;188;916080;-62
2020/12/05 00:56:17;;;;;;;27.67;15.47;;;;;;;;;;727512;187;1599065;-61
2020/12/05 00:58:43;;;;;;;23.20;14.70;;;;;;;;;;743679;185;919246;-61
2020/12/05 01:01:11;;;;;;;25.20;14.43;;;;;;;;;;735328;188;919360;-61
2020/12/05 01:03:35;;;;;;;22.60;15.03;;;;;;;;;;738389;188;937580;-61
2020/12/05 01:06:01;;;;;;;23.50;15.33;;;;;;;;;;738519;188;918581;-61
2020/12/05 01:08:27;;;;;;;21.50;15.10;;;;;;;;;;737674;187;942323;-61
2020/12/05 01:10:53;;;;;;;25.20;15.57;;;;;;;;;;733101;188;918905;-61
2020/12/05 01:13:18;;;;;;;21.40;14.20;;;;;;;;;;736183;188;919781;-60
2020/12/05 01:15:44;;;;;;;28.43;14.80;;;;;;;;;;737122;188;918614;-61
2020/12/05 01:18:10;;;;;;;24.40;15.33;;;;;;;;;;730956;188;919185;-61
2020/12/05 01:20:36;;;;;;;22.90;14.87;;;;;;;;;;734395;186;919342;-61
2020/12/05 01:23:02;;;;;;;21.47;14.23;;;;;;;;;;741267;187;919587;-62
2020/12/05 01:25:28;;;;;;;21.40;13.87;;;;;;;;;;736301;187;919606;-62
2020/12/05 01:27:54;;;;;;;21.20;14.33;;;;;;;;;;738755;185;918896;-61
2020/12/05 01:30:20;;;;;;;23.13;16.37;;;;;;;;;;745560;188;919828;-61
2020/12/05 01:32:46;;;;;;;23.73;16.50;;;;;;;;;;725360;185;2482982;-60
2020/12/05 01:35:11;;;;;;;19.63;12.10;;;;;;;;;;739226;185;919192;-61
2020/12/05 01:37:37;;;;;;;19.07;14.90;;;;;;;;;;734789;186;1639601;-61
2020/12/05 01:40:03;;;;;;;22.60;13.93;;;;;;;;;;731906;187;1020312;-62
2020/12/05 01:42:29;;;;;;;24.87;14.43;;;;;;;;;;730596;185;920397;-61
2020/12/05 01:44:55;;;;;;;18.27;12.03;;;;;;;;;;735667;188;919029;-61
2020/12/05 01:47:21;;;;;;;20.07;13.17;;;;;;;;;;740134;186;916639;-60
2020/12/05 01:49:46;;;;;;;21.70;13.93;;;;;;;;;;734639;188;919263;-60
2020/12/05 01:52:12;;;;;;;27.43;15.70;;;;;;;;;;737496;185;919225;-60
2020/12/05 01:54:38;;;;;;;22.63;13.63;;;;;;;;;;743261;188;918099;-61
2020/12/05 01:57:04;;;;;;;22.47;15.07;;;;;;;;;;733775;188;919017;-60
2020/12/05 01:59:30;;;;;;;22.83;13.38;;;;;;;;;;733392;188;919442;-60
2020/12/05 02:01:56;;;;;;;18.50;13.30;;;;;;;;;;741582;188;918795;-61
2020/12/05 02:04:22;;;;;;;24.97;14.63;;;;;;;;;;735780;188;1119280;-61
2020/12/05 02:06:55;;;;;;;24.00;14.70;;;;;;;;;;739639;188;920093;-60
2020/12/05 02:09:22;;;;;;;21.10;13.40;;;;;;;;;;732678;186;919452;-61
2020/12/05 02:11:53;;;;;;;21.70;13.60;;;;;;;;;;742706;188;943635;-61
2020/12/05 02:14:19;;;;;;;21.27;14.10;;;;;;;;;;735397;186;917618;-61
2020/12/05 02:16:44;;;;;;;20.90;13.77;;;;;;;;;;736042;188;918574;-60
2020/12/05 02:19:10;;;;;;;19.43;13.57;;;;;;;;;;731187;188;918631;-61
2020/12/05 02:21:36;;;;;;;27.70;16.07;;;;;;;;;;737061;188;919694;-61
2020/12/05 02:24:02;;;;;;;21.07;15.37;;;;;;;;;;734526;185;1092337;-61
2020/12/05 02:26:28;;;;;;;21.17;14.30;;;;;;;;;;738318;185;919562;-61
2020/12/05 02:28:54;;;;;;;26.20;14.27;;;;;;;;;;740076;186;918902;-62
2020/12/05 02:31:19;;;;;;;28.03;17.07;;;;;;;;;;737592;188;918947;-60
2020/12/05 02:33:45;;;;;;;23.17;14.32;;;;;;;;;;737903;186;919799;-63
2020/12/05 02:36:11;;;;;;;26.30;14.83;;;;;;;;;;740021;188;920213;-61
2020/12/05 02:38:54;;;;;;;23.52;14.45;;;;;;;;;;738730;184;919525;-61
2020/12/05 02:41:18;;;;;;;23.53;15.70;;;;;;;;;;731960;188;948006;-61
2020/12/05 02:43:44;;;;;;;22.33;13.50;;;;;;;;;;730935;188;1231441;-61
2020/12/05 02:46:10;;;;;;;24.07;15.47;;;;;;;;;;739087;186;917322;-61
2020/12/05 02:48:36;;;;;;;25.20;15.13;;;;;;;;;;730772;188;916788;-61
2020/12/05 02:51:02;;;;;;;19.97;13.60;;;;;;;;;;727299;188;1017226;-61
2020/12/05 02:53:28;;;;;;;22.80;14.40;;;;;;;;;;735135;188;926335;-61
2020/12/05 02:55:54;;;;;;;23.33;14.13;;;;;;;;;;738514;188;918712;-61
2020/12/05 02:58:19;;;;;;;25.93;16.30;;;;;;;;;;732612;188;918773;-61
2020/12/05 03:00:45;;;;;;;24.20;16.10;;;;;;;;;;736245;188;941206;-61
2020/12/05 03:03:11;;;;;;;23.23;14.13;;;;;;;;;;745181;188;919300;-61
2020/12/05 03:05:37;;;;;;;26.70;15.67;;;;;;;;;;735740;187;1100613;-61
2020/12/05 03:08:03;;;;;;;23.17;14.77;;;;;;;;;;735477;188;918701;-62
2020/12/05 03:10:29;;;;;;;26.07;15.20;;;;;;;;;;737637;186;886937;-61
2020/12/05 03:12:54;;;;;;;27.53;15.50;;;;;;;;;;737983;185;919796;-60
2020/12/05 03:15:20;;;;;;;24.10;13.80;;;;;;;;;;734014;185;919206;-62
2020/12/05 03:17:47;;;;;;;22.25;14.07;;;;;;;;;;741003;188;934276;-60
2020/12/05 03:20:13;;;;;;;25.40;15.27;;;;;;;;;;739409;188;920730;-60
2020/12/05 03:22:38;;;;;;;24.60;13.80;;;;;;;;;;738931;188;919714;-61
2020/12/05 03:25:05;;;;;;;24.23;14.20;;;;;;;;;;729762;188;920205;-61
2020/12/05 03:27:31;;;;;;;24.63;14.43;;;;;;;;;;725324;191;919043;-61
2020/12/05 03:29:57;;;;;;;25.47;15.40;;;;;;;;;;734809;188;920877;-61
2020/12/05 03:32:26;;;;;;;22.10;12.83;;;;;;;;;;733621;186;915247;-62
2020/12/05 03:34:49;;;;;;;22.27;14.07;;;;;;;;;;744373;188;918351;-61
2020/12/05 03:37:14;;;;;;;24.87;15.00;;;;;;;;;;736556;186;916298;-62
2020/12/05 03:39:40;;;;;;;21.70;14.17;;;;;;;;;;735725;188;916417;-61
2020/12/05 03:42:06;;;;;;;23.53;14.57;;;;;;;;;;735368;186;915835;-61
2020/12/05 03:44:32;;;;;;;24.70;15.00;;;;;;;;;;731728;187;927008;-61
2020/12/05 03:46:58;;;;;;;25.03;11.43;;;;;;;;;;737925;187;918641;-61
2020/12/05 03:49:31;;;;;;;25.20;13.37;;;;;;;;;;736287;187;919272;-60
2020/12/05 03:51:50;;;;;;;26.80;15.40;;;;;;;;;;739097;188;1054410;-62
2020/12/05 03:54:15;;;;;;;20.20;12.93;;;;;;;;;;739071;188;918925;-61
2020/12/05 03:56:41;;;;;;;22.77;14.80;;;;;;;;;;731629;188;918465;-60
2020/12/05 03:59:07;;;;;;;25.93;13.47;;;;;;;;;;744000;188;919324;-62
2020/12/05 04:01:33;;;;;;;24.47;14.23;;;;;;;;;;737683;188;1023625;-62
2020/12/05 04:03:59;;;;;;;21.50;15.18;;;;;;;;;;733904;186;919092;-61
2020/12/05 04:06:25;;;;;;;24.83;15.07;;;;;;;;;;738896;188;921600;-62
2020/12/05 04:08:51;;;;;;;20.03;13.23;;;;;;;;;;729133;188;914442;-61
2020/12/05 04:11:17;;;;;;;21.37;14.67;;;;;;;;;;735724;186;915253;-61
2020/12/05 04:13:43;;;;;;;23.07;12.97;;;;;;;;;;745012;185;919620;-60
2020/12/05 04:16:08;;;;;;;19.57;13.50;;;;;;;;;;737423;188;919072;-61
2020/12/05 04:18:34;;;;;;;20.70;13.73;;;;;;;;;;733526;188;919180;-62
2020/12/05 04:21:00;;;;;;;21.07;13.50;;;;;;;;;;735754;188;919282;-62
2020/12/05 04:23:26;;;;;;;23.23;15.90;;;;;;;;;;740297;188;918758;-60
2020/12/05 04:25:52;;;;;;;20.10;13.10;;;;;;;;;;735049;188;918945;-61
2020/12/05 04:28:18;;;;;;;17.97;12.97;;;;;;;;;;729709;187;919128;-61
2020/12/05 04:30:43;;;;;;;21.10;13.47;;;;;;;;;;742290;188;911099;-63
2020/12/05 04:33:09;;;;;;;24.23;14.50;;;;;;;;;;730494;188;925636;-60
2020/12/05 04:35:35;;;;;;;21.27;14.40;;;;;;;;;;734791;188;920473;-63
2020/12/05 04:38:01;;;;;;;23.43;13.77;;;;;;;;;;741129;188;901657;-61
2020/12/05 04:40:27;;;;;;;23.70;13.97;;;;;;;;;;732623;188;919986;-61
2020/12/05 04:42:53;;;;;;;19.70;13.75;;;;;;;;;;736668;186;877083;-61
2020/12/05 04:45:19;;;;;;;19.70;11.17;;;;;;;;;;733163;185;924697;-61
2020/12/05 04:47:45;;;;;;;20.23;13.20;;;;;;;;;;739387;188;918105;-61
2020/12/05 04:50:11;;;;;;;18.00;13.00;;;;;;;;;;731527;188;917825;-61
2020/12/05 04:52:36;;;;;;;22.43;13.20;;;;;;;;;;732806;188;919350;-62
2020/12/05 04:55:02;;;;;;;22.40;14.60;;;;;;;;;;737465;185;919245;-61
2020/12/05 04:57:28;;;;;;;25.37;16.00;;;;;;;;;;739421;187;919248;-62
2020/12/05 04:59:54;;;;;;;24.63;13.38;;;;;;;;;;735324;188;996227;-61
2020/12/05 05:02:20;;;;;;;22.03;12.30;;;;;;;;;;741175;186;918458;-62
2020/12/05 05:04:47;;;;;;;18.37;12.30;;;;;;;;;;734594;187;918247;-62
2020/12/05 05:07:12;;;;;;;21.05;13.27;;;;;;;;;;738267;187;919517;-63
2020/12/05 05:09:44;;;;;;;20.60;11.90;;;;;;;;;;738015;187;919118;-63
2020/12/05 05:12:10;;;;;;;25.10;13.67;;;;;;;;;;739938;185;912803;-61
2020/12/05 05:14:36;;;;;;;23.10;14.50;;;;;;;;;;733016;188;912510;-62
2020/12/05 05:17:02;;;;;;;20.00;14.03;;;;;;;;;;734929;185;915823;-62
2020/12/05 05:19:32;;;;;;;22.30;15.53;;;;;;;;;;740231;187;919297;-61
2020/12/05 05:21:58;;;;;;;21.17;13.87;;;;;;;;;;736352;188;917784;-62
2020/12/05 05:24:24;;;;;;;23.13;13.07;;;;;;;;;;735612;188;919510;-60
2020/12/05 05:26:56;;;;;;;21.70;13.87;;;;;;;;;;733676;188;919185;-62
2020/12/05 05:29:22;;;;;;;21.33;12.70;;;;;;;;;;737697;188;920361;-62
2020/12/05 05:31:53;;;;;;;22.70;13.53;;;;;;;;;;731699;187;920095;-61
2020/12/05 05:34:19;;;;;;;16.03;10.40;;;;;;;;;;734964;188;918600;-62
2020/12/05 05:36:45;;;;;;;20.20;13.30;;;;;;;;;;732468;188;919828;-60
2020/12/05 05:39:12;;;;;;;23.40;12.50;;;;;;;;;;717749;192;919206;-62
2020/12/05 05:41:38;;;;;;;17.40;11.57;;;;;;;;;;702449;192;919495;-61
2020/12/05 05:44:02;;;;;;;19.20;10.50;;;;;;;;;;701946;194;1737529;-64
2020/12/05 05:46:28;;;;;;;20.50;12.27;;;;;;;;;;714939;191;919110;-64
2020/12/05 05:48:54;;;;;;;19.80;11.90;;;;;;;;;;736333;186;919373;-63
2020/12/05 05:51:22;;;;;;;20.13;12.00;;;;;;;;;;731466;188;915085;-63
2020/12/05 05:53:48;;;;;;;19.70;11.90;;;;;;;;;;738585;188;919906;-64
2020/12/05 05:56:14;;;;;;;18.30;11.30;;;;;;;;;;733191;185;919283;-61
2020/12/05 05:58:41;;;;;;;20.23;11.33;;;;;;;;;;736382;185;916316;-62
2020/12/05 06:01:07;;;;;;;22.57;13.10;;;;;;;;;;733807;188;1207844;-63
2020/12/05 06:03:33;;;;;;;19.43;11.17;;;;;;;;;;738431;188;920444;-61
2020/12/05 06:05:59;;;;;;;20.60;12.70;;;;;;;;;;732663;187;918896;-61
2020/12/05 06:08:25;;;;;;;25.40;13.03;;;;;;;;;;735879;186;922574;-61
2020/12/05 06:10:59;;;;;;;20.93;12.50;;;;;;;;;;742578;186;915628;-62
2020/12/05 06:13:25;;;;;;;18.10;11.03;;;;;;;;;;736150;188;888362;-62
2020/12/05 06:15:50;;;;;;;19.83;12.03;;;;;;;;;;735910;185;1019014;-62
2020/12/05 06:18:16;;;;;;;21.17;12.40;;;;;;;;;;731481;188;917191;-62
2020/12/05 06:20:43;;;;;;;22.83;12.27;;;;;;;;;;741534;185;910728;-62
2020/12/05 06:23:09;;;;;;;17.60;11.00;;;;;;;;;;733164;185;919266;-61
2020/12/05 06:25:35;;;;;;;21.27;11.53;;;;;;;;;;735739;185;914399;-61
2020/12/05 06:28:01;;;;;;;20.00;13.27;;;;;;;;;;737906;187;939015;-61
2020/12/05 06:30:27;;;;;;;23.42;13.65;;;;;;;;;;733665;187;1021963;-63
2020/12/05 06:32:56;;;;;;;19.10;11.27;;;;;;;;;;732956;188;919317;-61
2020/12/05 06:35:29;;;;;;;19.55;13.62;;;;;;;;;;737759;188;919620;-61
2020/12/05 06:37:55;;;;;;;18.87;12.27;;;;;;;;;;736456;187;918898;-61
2020/12/05 06:40:20;;;;;;;18.37;11.80;;;;;;;;;;734774;188;919528;-61
2020/12/05 06:42:47;;;;;;;19.40;12.50;;;;;;;;;;732198;188;919043;-64
2020/12/05 06:45:30;;;;;;;18.23;11.87;;;;;;;;;;738862;186;918860;-63
2020/12/05 06:48:02;;;;;;;18.57;11.20;;;;;;;;;;737289;188;949719;-63
2020/12/05 06:50:32;;;;;;;17.33;12.23;;;;;;;;;;739343;188;918872;-62
2020/12/05 06:52:58;;;;;;;15.77;11.07;;;;;;;;;;733238;188;920402;-62
2020/12/05 06:55:29;;;;;;;18.00;10.93;;;;;;;;;;731240;188;926377;-61
2020/12/05 06:58:03;;;;;;;19.75;11.40;;;;;;;;;;734004;188;917984;-61
2020/12/05 07:00:30;;;;;;;20.60;12.03;;;;;;;;;;733663;188;919057;-61
2020/12/05 07:02:56;;;;;;;15.60;10.50;;;;;;;;;;734766;187;919343;-61
2020/12/05 07:05:22;;;;;;;19.00;12.37;;;;;;;;;;730545;185;918953;-61
2020/12/05 07:07:48;;;;;;;19.10;11.03;;;;;;;;;;737753;187;919029;-62
2020/12/05 07:10:15;;;;;;;17.63;11.07;;;;;;;;;;729864;188;1373499;-62
2020/12/05 07:12:40;;;;;;;20.07;11.63;;;;;;;;;;736069;188;919048;-62
2020/12/05 07:15:12;;;;;;;13.00;9.17;;;;;;;;;;731424;188;919259;-61
2020/12/05 07:17:38;;;;;;;21.10;12.87;;;;;;;;;;739596;188;919557;-62
2020/12/05 07:20:03;;;;;;;17.73;11.90;;;;;;;;;;736775;186;919463;-63
2020/12/05 07:22:29;;;;;;;17.47;11.90;;;;;;;;;;736011;188;924138;-63
2020/12/05 07:24:55;;;;;;;22.58;13.05;;;;;;;;;;739599;188;918632;-62
2020/12/05 07:27:21;;;;;;;21.20;13.23;;;;;;;;;;735646;188;918672;-62
2020/12/05 07:29:47;;;;;;;16.47;11.73;;;;;;;;;;730112;187;1465148;-61
2020/12/05 07:32:13;;;;;;;18.13;11.50;;;;;;;;;;735351;185;919796;-62
2020/12/05 07:34:38;;;;;;;16.73;11.77;;;;;;;;;;739295;187;918933;-60
2020/12/05 07:37:04;;;;;;;18.37;11.57;;;;;;;;;;732532;187;920272;-62
2020/12/05 07:39:30;;;;;;;24.73;14.82;;;;;;;;;;734886;185;919007;-62
2020/12/05 07:41:56;;;;;;;21.23;13.80;;;;;;;;;;737114;186;921507;-61
2020/12/05 07:44:22;;;;;;;22.08;12.35;;;;;;;;;;736437;188;919147;-62
2020/12/05 07:46:48;;;;;;;26.43;14.93;;;;;;;;;;732703;188;920564;-61
2020/12/05 07:49:14;;;;;;;20.90;13.10;;;;;;;;;;740833;188;920062;-61
2020/12/05 07:51:39;;;;;;;22.07;14.57;;;;;;;;;;734216;188;919226;-62
2020/12/05 07:54:05;;;;;;;21.20;12.85;;;;;;;;;;734851;188;919191;-62
2020/12/05 07:56:31;;;;;;;20.03;13.30;;;;;;;;;;734414;188;914829;-62
2020/12/05 07:58:57;;;;;;;17.33;10.90;;;;;;;;;;731335;188;915852;-63
2020/12/05 08:01:29;;;;;;;18.77;11.77;;;;;;;;;;736949;186;920157;-62
2020/12/05 08:04:13;;;;;;;19.50;13.20;;;;;;;;;;733326;188;919391;-63
2020/12/05 08:06:49;;;;;;;17.70;12.03;;;;;;;;;;726107;190;919428;-63
2020/12/05 08:09:15;;;;;;;18.20;11.57;;;;;;;;;;733706;188;919145;-62
2020/12/05 08:11:41;;;;;;;22.83;12.13;;;;;;;;;;736993;188;919529;-62
2020/12/05 08:14:07;;;;;;;18.42;11.27;;;;;;;;;;733770;188;918790;-61
2020/12/05 08:16:32;;;;;;;15.47;10.97;;;;;;;;;;735938;185;919957;-61
2020/12/05 08:18:58;;;;;;;17.62;11.25;;;;;;;;;;738564;188;919401;-65
2020/12/05 08:21:24;;;;;;;18.87;11.93;;;;;;;;;;733517;188;919185;-62
2020/12/05 08:23:50;;;;;;;16.33;9.65;;;;;;;;;;736042;186;924105;-63
2020/12/05 08:26:16;;;;;;;16.53;11.77;;;;;;;;;;733594;188;918977;-62
2020/12/05 08:28:42;;;;;;;16.33;10.83;;;;;;;;;;735097;185;918982;-60
2020/12/05 08:31:08;;;;;;;16.27;11.30;;;;;;;;;;733486;187;928286;-62
2020/12/05 08:33:49;;;;;;;15.52;9.75;;;;;;;;;;733887;188;919144;-60
2020/12/05 08:36:17;;;;;;;15.37;11.43;;;;;;;;;;737199;188;918633;-61
2020/12/05 08:38:43;;;;;;;16.30;10.77;;;;;;;;;;738027;187;919092;-62
2020/12/05 08:41:08;;;;;;;22.17;12.63;;;;;;;;;;739318;188;1019154;-62
2020/12/05 08:43:34;;;;;;;15.80;11.33;;;;;;;;;;736322;188;940130;-63
2020/12/05 08:46:00;;;;;;;18.00;11.67;;;;;;;;;;740534;187;919180;-61
2020/12/05 08:48:26;;;;;;;18.27;10.37;;;;;;;;;;733796;186;917363;-60
2020/12/05 08:50:52;;;;;;;18.70;11.33;;;;;;;;;;733829;188;919448;-63
2020/12/05 08:53:18;;;;;;;18.53;10.17;;;;;;;;;;740515;188;918096;-62
2020/12/05 08:55:44;;;;;;;20.33;12.00;;;;;;;;;;738664;188;921264;-61
2020/12/05 08:58:10;;;;;;;17.92;11.30;;;;;;;;;;730456;188;2592753;-61
2020/12/05 09:00:35;;;;;;;16.23;11.70;;;;;;;;;;727140;188;903793;-63
2020/12/05 09:03:02;;;;;;;16.13;10.57;;;;;;;;;;738475;188;920262;-61
2020/12/05 09:05:27;;;;;;;20.25;12.27;;;;;;;;;;733712;186;917987;-61
2020/12/05 09:07:53;;;;;;;18.50;12.53;;;;;;;;;;730449;188;918833;-62
2020/12/05 09:10:19;;;;;;;21.23;11.43;;;;;;;;;;730224;189;917577;-61
2020/12/05 09:12:45;;;;;;;20.63;10.87;;;;;;;;;;738208;188;918750;-62
2020/12/05 09:15:11;;;;;;;16.63;10.30;;;;;;;;;;734354;188;923190;-61
2020/12/05 09:17:36;;;;;;;16.90;10.13;;;;;;;;;;742248;185;816846;-61
2020/12/05 09:20:11;;;;;;;20.55;12.50;;;;;;;;;;736779;188;918577;-61
2020/12/05 09:22:37;;;;;;;17.47;11.17;;;;;;;;;;736085;188;919229;-62
2020/12/05 09:25:03;;;;;;;16.37;9.93;;;;;;;;;;733538;188;918577;-61
2020/12/05 09:27:33;;;;;;;17.13;9.60;;;;;;;;;;737773;188;918542;-61
2020/12/05 09:29:59;;;;;;;16.43;10.13;;;;;;;;;;736904;186;915863;-61
2020/12/05 09:32:31;;;;;;;14.30;10.70;;;;;;;;;;733263;188;914583;-62
2020/12/05 09:34:57;;;;;;;15.80;8.70;;;;;;;;;;734331;188;915672;-61
2020/12/05 09:37:22;;;;;;;16.05;9.57;;;;;;;;;;737489;188;920690;-62
2020/12/05 09:39:48;;;;;;;19.13;11.20;;;;;;;;;;728110;188;1018173;-61
2020/12/05 09:42:14;;;;;;;16.48;10.88;;;;;;;;;;735556;187;912488;-61
2020/12/05 09:44:40;;;;;;;18.77;9.37;;;;;;;;;;741187;187;904904;-62
2020/12/05 09:47:06;;;;;;;15.90;9.20;;;;;;;;;;733272;185;1350190;-62
2020/12/05 09:49:32;;;;;;;14.43;10.80;;;;;;;;;;737571;188;916291;-62
2020/12/05 09:51:58;;;;;;;15.25;9.73;;;;;;;;;;734654;188;912015;-63
2020/12/05 09:54:23;;;;;;;13.30;8.50;;;;;;;;;;736404;185;922009;-63
2020/12/05 09:56:49;;;;;;;13.70;8.80;;;;;;;;;;736480;186;920638;-62
2020/12/05 09:59:15;;;;;;;13.77;9.60;;;;;;;;;;742300;187;816805;-62
2020/12/05 10:01:43;;;;;;;13.67;8.43;;;;;;;;;;736051;188;921985;-62
2020/12/05 10:04:09;;;;;;;13.23;9.13;;;;;;;;;;735578;188;1000755;-62
2020/12/05 10:06:34;;;;;;;17.58;9.82;;;;;;;;;;734137;185;863738;-64
2020/12/05 10:09:00;;;;;;;12.73;9.37;;;;;;;;;;744058;188;920017;-60
2020/12/05 10:11:26;;;;;;;14.13;9.07;;;;;;;;;;736589;186;991860;-62
2020/12/05 10:13:52;;;;;;;18.10;10.00;;;;;;;;;;735135;185;919365;-62
2020/12/05 10:16:18;;;;;;;16.40;9.47;;;;;;;;;;740985;185;917936;-61
2020/12/05 10:18:44;;;;;;;15.27;9.70;;;;;;;;;;740690;188;860787;-62
2020/12/05 10:21:12;;;;;;;17.70;10.87;;;;;;;;;;736278;188;919051;-62
2020/12/05 10:23:38;;;;;;;15.83;9.00;;;;;;;;;;737216;186;918704;-62
2020/12/05 10:26:04;;;;;;;18.20;11.37;;;;;;;;;;734150;188;919484;-63
2020/12/05 10:28:30;;;;;;;15.33;10.73;;;;;;;;;;730777;188;1511274;-62
2020/12/05 10:30:56;;;;;;;13.07;9.00;;;;;;;;;;735208;185;918593;-61
2020/12/05 10:33:21;;;;;;;14.70;9.48;;;;;;;;;;739202;188;919560;-61
2020/12/05 10:35:47;;;;;;;16.07;10.23;;;;;;;;;;734352;188;918931;-62
2020/12/05 10:38:13;;;;;;;14.93;9.73;;;;;;;;;;734428;185;917972;-62
2020/12/05 10:40:39;;;;;;;15.70;10.37;;;;;;;;;;745427;185;762327;-61
2020/12/05 10:43:05;;;;;;;13.67;9.43;;;;;;;;;;738478;185;629943;-61
2020/12/05 10:45:31;;;;;;;14.40;8.67;;;;;;;;;;739790;188;625403;-62
2020/12/05 10:47:57;;;;;;;14.57;8.90;;;;;;;;;;734885;188;919106;-63
2020/12/05 10:50:22;;;;;;;15.50;10.33;;;;;;;;;;734936;188;918894;-62
2020/12/05 10:52:48;;;;;;;19.57;9.63;;;;;;;;;;733593;188;918564;-61
2020/12/05 10:55:14;;;;;;;15.30;9.80;;;;;;;;;;741716;184;615234;-60
2020/12/05 10:57:40;;;;;;;15.50;8.73;;;;;;;;;;740910;188;919087;-63
2020/12/05 11:00:06;;;;;;;19.10;8.65;;;;;;;;;;739461;188;919368;-62
2020/12/05 11:02:32;;;;;;;17.83;8.87;;;;;;;;;;735528;188;919391;-62
2020/12/05 11:04:57;;;;;;;13.98;9.80;;;;;;;;;;740115;188;895366;-62
2020/12/05 11:07:23;;;;;;;14.30;9.13;;;;;;;;;;733758;186;1021811;-62
2020/12/05 11:09:49;;;;;;;13.93;9.27;;;;;;;;;;732650;188;919517;-62
2020/12/05 11:12:15;;;;;;;13.03;8.80;;;;;;;;;;739481;188;919944;-62
2020/12/05 11:14:41;;;;;;;12.77;7.90;;;;;;;;;;730872;185;1407869;-62
2020/12/05 11:17:07;;;;;;;13.70;9.20;;;;;;;;;;735895;188;918622;-61
2020/12/05 11:19:33;;;;;;;12.70;9.70;;;;;;;;;;741660;188;843153;-63
2020/12/05 11:21:59;;;;;;;14.93;8.83;;;;;;;;;;737522;186;918516;-63
2020/12/05 11:24:25;;;;;;;12.77;8.10;;;;;;;;;;735615;185;918973;-61
2020/12/05 11:26:50;;;;;;;15.33;8.90;;;;;;;;;;738744;188;918248;-62
2020/12/05 11:29:16;;;;;;;17.60;9.60;;;;;;;;;;735199;188;918859;-61
2020/12/05 11:31:42;;;;;;;11.43;8.00;;;;;;;;;;735611;188;920097;-62
2020/12/05 11:34:08;;;;;;;13.55;8.73;;;;;;;;;;730547;188;1335329;-61
2020/12/05 11:36:34;;;;;;;20.50;8.57;;;;;;;;;;738601;188;919093;-62
2020/12/05 11:39:00;;;;;;;12.53;7.70;;;;;;;;;;733874;188;918711;-62
2020/12/05 11:41:26;;;;;;;11.93;7.20;;;;;;;;;;731072;188;918590;-62
2020/12/05 11:43:51;;;;;;;13.07;7.63;;;;;;;;;;743666;186;917965;-61
2020/12/05 11:46:17;;;;;;;9.40;6.60;;;;;;;;;;736870;188;919288;-61
2020/12/05 11:48:43;;;;;;;13.20;6.53;;;;;;;;;;737089;188;918872;-61
2020/12/05 11:51:09;;;;;;;12.40;7.60;;;;;;;;;;733882;185;918935;-62
2020/12/05 11:53:35;;;;;;;15.07;8.20;;;;;;;;;;732244;188;919345;-62
2020/12/05 11:56:01;;;;;;;10.03;7.13;;;;;;;;;;728865;186;1198443;-61
2020/12/05 11:58:26;;;;;;;9.27;6.97;;;;;;;;;;735461;185;919142;-61
2020/12/05 12:00:52;;;;;;;10.50;6.37;;;;;;;;;;739709;188;928189;-61
2020/12/05 12:03:18;;;;;;;11.47;6.70;;;;;;;;;;735449;185;920926;-61
2020/12/05 12:05:44;;;;;;;10.23;6.23;;;;;;;;;;733373;187;919034;-61
2020/12/05 12:08:10;;;;;;;14.03;7.37;;;;;;;;;;739145;188;919032;-61
2020/12/05 12:10:36;;;;;;;11.50;6.43;;;;;;;;;;735408;188;917024;-61
2020/12/05 12:13:01;;;;;;;10.83;7.63;;;;;;;;;;737329;188;1005018;-61
2020/12/05 12:15:27;;;;;;;9.80;6.33;;;;;;;;;;739754;188;919532;-61
2020/12/05 12:17:53;;;;;;;9.93;6.23;;;;;;;;;;732455;187;917512;-60
2020/12/05 12:20:19;;;;;;;7.95;6.03;;;;;;;;;;734704;187;921619;-61
2020/12/05 12:22:45;;;;;;;9.90;7.13;;;;;;;;;;732429;186;920765;-62
2020/12/05 12:25:11;;;;;;;11.33;6.73;;;;;;;;;;742532;186;941855;-61
2020/12/05 12:27:38;;;;;;;11.00;7.00;;;;;;;;;;734057;188;915982;-63
2020/12/05 12:30:02;;;;;;;11.97;7.10;;;;;;;;;;736873;186;1017647;-61
2020/12/05 12:32:28;;;;;;;8.67;6.57;;;;;;;;;;739315;188;915136;-62
2020/12/05 12:34:54;;;;;;;9.30;5.30;;;;;;;;;;736857;188;919351;-62
2020/12/05 12:37:20;;;;;;;9.80;6.03;;;;;;;;;;731915;188;918476;-62
2020/12/05 12:39:46;;;;;;;7.13;4.90;;;;;;;;;;739711;188;918238;-62
2020/12/05 12:42:12;;;;;;;8.03;6.10;;;;;;;;;;731417;185;919320;-61
2020/12/05 12:44:38;;;;;;;9.33;5.97;;;;;;;;;;735606;188;918133;-62
2020/12/05 12:47:24;;;;;;;10.77;6.60;;;;;;;;;;732697;188;919544;-61
2020/12/05 12:49:40;;;;;;;10.27;6.30;;;;;;;;;;738092;188;918724;-62
2020/12/05 12:52:07;;;;;;;11.55;7.85;;;;;;;;;;733017;188;918993;-62
2020/12/05 12:54:32;;;;;;;12.07;6.70;;;;;;;;;;734826;188;919540;-63
2020/12/05 12:56:59;;;;;;;12.07;7.00;;;;;;;;;;744930;188;919172;-61
2020/12/05 12:59:24;;;;;;;12.03;6.90;;;;;;;;;;733858;188;919300;-63
2020/12/05 13:01:51;;;;;;;9.52;6.90;;;;;;;;;;734083;188;918775;-62
2020/12/05 13:04:17;;;;;;;11.30;7.20;;;;;;;;;;715838;188;3675451;-61
2020/12/05 13:06:43;;;;;;;10.10;7.43;;;;;;;;;;745718;188;919153;-61
2020/12/05 13:09:09;;;;;;;11.63;7.57;;;;;;;;;;734797;188;919352;-61
2020/12/05 13:11:34;;;;;;;11.35;6.65;;;;;;;;;;737232;188;918576;-62
2020/12/05 13:14:00;;;;;;;9.50;7.03;;;;;;;;;;740528;188;918131;-63
2020/12/05 13:16:26;;;;;;;14.43;7.50;;;;;;;;;;732238;186;921305;-63
2020/12/05 13:18:52;;;;;;;17.33;9.17;;;;;;;;;;736914;187;918645;-62
2020/12/05 13:21:19;;;;;;;12.23;8.10;;;;;;;;;;743339;188;1021836;-62
2020/12/05 13:23:45;;;;;;;15.00;8.07;;;;;;;;;;735926;184;1018463;-63
2020/12/05 13:26:11;;;;;;;10.20;6.77;;;;;;;;;;737115;188;1019672;-62
2020/12/05 13:28:37;;;;;;;15.57;8.95;;;;;;;;;;730461;186;918826;-62
2020/12/05 13:31:03;;;;;;;11.90;7.97;;;;;;;;;;743214;188;918838;-62
2020/12/05 13:33:29;;;;;;;13.95;8.30;;;;;;;;;;738448;188;919643;-61
2020/12/05 13:35:54;;;;;;;11.50;7.83;;;;;;;;;;732049;188;925869;-62
2020/12/05 13:38:20;;;;;;;11.40;8.48;;;;;;;;;;737601;186;920451;-63
2020/12/05 13:40:46;;;;;;;12.63;8.27;;;;;;;;;;735080;188;914664;-62
2020/12/05 13:43:12;;;;;;;12.23;8.57;;;;;;;;;;733851;186;925700;-62
2020/12/05 13:45:38;;;;;;;10.83;8.00;;;;;;;;;;740080;185;889446;-62
2020/12/05 13:48:04;;;;;;;12.70;7.83;;;;;;;;;;735314;186;923245;-61
2020/12/05 13:50:30;;;;;;;11.60;8.00;;;;;;;;;;735400;184;909021;-62
2020/12/05 13:52:56;;;;;;;11.43;7.57;;;;;;;;;;731768;186;926873;-61
2020/12/05 13:55:21;;;;;;;10.10;7.87;;;;;;;;;;735878;186;915446;-62
2020/12/05 13:57:47;;;;;;;9.57;7.50;;;;;;;;;;733199;188;919482;-62
2020/12/05 14:00:13;;;;;;;13.27;8.60;;;;;;;;;;731833;186;920490;-62
2020/12/05 14:02:39;;;;;;;11.07;6.90;;;;;;;;;;742514;188;919798;-63